Time;durP1;ratioP1;P1;durP2;ratioP2;P2;SDS_P1;SDS_P2;PMS_P1;PMS_P2;Temp;Humidity;BMP_temperature;BMP_pressure;BME280_temperature;BME280_humidity;BME280_pressure;Samples;Min_cycle;Max_cycle;Signal;HPM_P1;HPM_P2
2023/08/21 00:02:06;;;;;;;;;21.00;20.00;;;;;27.21;100.00;99237.31;6269586;27;96413;-70
2023/08/21 00:05:10;;;;;;;;;21.00;20.00;;;;;27.25;100.00;99235.53;6259302;27;96361;-69
2023/08/21 00:08:13;;;;;;;;;23.00;22.00;;;;;27.22;100.00;99240.91;6282000;27;96358;-70
2023/08/21 00:11:16;;;;;;;;;24.00;21.40;;;;;27.21;100.00;99240.09;6252836;27;97613;-70
2023/08/21 00:14:20;;;;;;;;;21.00;20.00;;;;;27.19;100.00;99230.44;6286019;27;96510;-69
2023/08/21 00:17:24;;;;;;;;;22.20;20.00;;;;;27.13;100.00;99233.38;6269264;27;96823;-70
2023/08/21 00:20:27;;;;;;;;;24.00;21.75;;;;;27.11;100.00;99230.13;6267931;27;98665;-70
2023/08/21 00:23:31;;;;;;;;;20.40;20.00;;;;;27.05;100.00;99228.63;6268553;27;97701;-70
2023/08/21 00:26:34;;;;;;;;;23.25;21.25;;;;;26.98;100.00;99231.03;6288074;27;96219;-70
2023/08/21 00:29:37;;;;;;;;;20.40;18.80;;;;;27.00;100.00;99234.31;6249919;27;96693;-70
2023/08/21 00:32:42;;;;;;;;;20.25;19.00;;;;;26.95;100.00;99228.13;6268570;27;98623;-70
2023/08/21 00:35:45;;;;;;;;;26.40;21.40;;;;;26.94;100.00;99232.84;6269689;27;97063;-70
2023/08/21 00:38:49;;;;;;;;;22.20;21.40;;;;;26.90;100.00;99242.09;6270366;27;96328;-69
2023/08/21 00:41:52;;;;;;;;;23.50;20.75;;;;;26.90;100.00;99244.88;6287650;27;96390;-69
2023/08/21 00:44:55;;;;;;;;;23.00;22.00;;;;;26.81;100.00;99230.97;6267692;27;99188;-69
2023/08/21 00:48:00;;;;;;;;;20.00;19.00;;;;;26.82;100.00;99240.91;6268001;27;96663;-70
2023/08/21 00:51:04;;;;;;;;;23.00;22.00;;;;;26.78;100.00;99225.28;6268068;27;96600;-70
2023/08/21 00:54:07;;;;;;;;;22.00;21.00;;;;;26.74;100.00;99222.31;6287314;27;96449;-70
2023/08/21 00:57:11;;;;;;;;;21.00;19.20;;;;;26.79;100.00;99235.19;6257921;27;97195;-69
2023/08/21 01:00:14;;;;;;;;;23.80;21.00;;;;;26.76;100.00;99231.13;6245683;27;98626;-70
2023/08/21 01:03:19;;;;;;;;;19.00;19.00;;;;;26.73;100.00;99227.03;6249528;27;98498;-70
2023/08/21 01:06:23;;;;;;;;;23.00;22.00;;;;;26.74;100.00;99228.66;6286910;27;97510;-70
2023/08/21 01:09:34;;;;;;;;;22.50;20.50;;;;;26.72;100.00;99230.13;6249377;27;98646;-69
2023/08/21 01:12:44;;;;;;;;;21.40;20.00;;;;;26.66;100.00;99229.47;6269035;27;96895;-70
2023/08/21 01:15:51;;;;;;;;;21.00;19.80;;;;;26.68;100.00;99235.47;6251616;27;98375;-70
2023/08/21 01:18:57;;;;;;;;;21.00;19.00;;;;;26.66;100.00;99226.69;6268143;27;96295;-70
2023/08/21 01:22:01;;;;;;;;;19.40;18.40;;;;;26.65;100.00;99227.81;6286366;27;96558;-69
2023/08/21 01:25:06;;;;;;;;;19.00;17.80;;;;;26.58;100.00;99230.25;6268467;27;98311;-70
2023/08/21 01:28:10;;;;;;;;;20.00;19.00;;;;;26.59;100.00;99226.31;6249086;27;97161;-69
2023/08/21 01:31:19;;;;;;;;;20.00;19.75;;;;;26.56;100.00;99223.38;6267617;27;97693;-70
2023/08/21 01:34:23;;;;;;;;;19.60;18.20;;;;;26.51;100.00;99220.75;6249436;27;99078;-70
2023/08/21 01:37:27;;;;;;;;;20.00;19.00;;;;;26.47;100.00;99217.81;6254989;27;96647;-69
2023/08/21 01:40:32;;;;;;;;;22.25;20.25;;;;;26.49;100.00;99225.78;6283132;27;96544;-70
2023/08/21 01:43:35;;;;;;;;;22.50;19.50;;;;;26.44;100.00;99218.44;6250535;27;96712;-70
2023/08/21 01:46:38;;;;;;;;;21.00;21.00;;;;;26.46;100.00;99223.66;6248742;27;98562;-70
2023/08/21 01:49:41;;;;;;;;;19.00;19.00;;;;;26.42;100.00;99217.97;6284698;27;97799;-69
2023/08/21 01:52:45;;;;;;;;;21.50;19.00;;;;;26.40;100.00;99220.22;6267487;27;96573;-70
2023/08/21 01:55:49;;;;;;;;;19.80;18.20;;;;;26.40;100.00;99220.22;6286731;27;96844;-69
2023/08/21 01:58:52;;;;;;;;;23.00;22.00;;;;;26.41;100.00;99230.16;6251646;27;97030;-70
2023/08/21 02:01:56;;;;;;;;;23.75;22.75;;;;;26.40;100.00;99231.28;6265967;27;96795;-70
2023/08/21 02:05:00;;;;;;;;;23.40;22.40;;;;;26.40;100.00;99234.03;6241359;27;96760;-70
2023/08/21 02:08:03;;;;;;;;;21.50;20.00;;;;;26.36;100.00;99233.03;6277682;27;96459;-69
2023/08/21 02:11:08;;;;;;;;;20.00;20.00;;;;;26.31;100.00;99224.88;6267520;27;97183;-69
2023/08/21 02:14:11;;;;;;;;;22.00;21.00;;;;;26.28;100.00;99231.06;6283055;27;96471;-69
2023/08/21 02:17:15;;;;;;;;;23.00;22.00;;;;;26.21;100.00;99222.34;6267993;27;96925;-70
2023/08/21 02:20:18;;;;;;;;;21.20;20.20;;;;;26.21;100.00;99227.88;6266852;27;96302;-69
2023/08/21 02:23:21;;;;;;;;;21.80;20.00;;;;;26.12;100.00;99216.78;6250206;27;99162;-70
2023/08/21 02:26:26;;;;;;;;;24.40;21.00;;;;;26.12;100.00;99216.78;6261049;27;98496;-70
2023/08/21 02:29:30;;;;;;;;;21.80;21.80;;;;;26.13;100.00;99223.94;6273266;27;98175;-69
2023/08/21 02:32:33;;;;;;;;;25.50;23.00;;;;;26.12;100.00;99219.56;6266403;27;97064;-70
2023/08/21 02:35:37;;;;;;;;;24.40;23.00;;;;;26.10;100.00;99215.44;6266644;27;97030;-69
2023/08/21 02:38:41;;;;;;;;;18.20;17.00;;;;;26.08;100.00;99221.31;6248578;27;99034;-69
2023/08/21 02:41:48;;;;;;;;;20.60;19.40;;;;;26.05;100.00;99221.94;6265073;27;97122;-70
2023/08/21 02:44:52;;;;;;;;;23.00;21.00;;;;;26.01;100.00;99222.88;6247080;27;96928;-70
2023/08/21 02:47:57;;;;;;;;;22.00;19.00;;;;;25.97;100.00;99219.94;6251580;27;96867;-70
2023/08/21 02:51:02;;;;;;;;;21.40;21.40;;;;;25.92;100.00;99222.00;6253081;27;97629;-70
2023/08/21 02:54:08;;;;;;;;;19.40;18.00;;;;;25.87;100.00;99221.00;6289199;27;96636;-70
2023/08/21 02:57:14;;;;;;;;;20.60;19.00;;;;;25.84;100.00;99220.81;6271188;27;97068;-70
2023/08/21 03:00:19;;;;;;;;;24.00;22.00;;;;;25.81;100.00;99215.91;6252350;27;98421;-70
2023/08/21 03:03:32;;;;;;;;;22.00;20.00;;;;;25.77;100.00;99217.66;6279293;27;96453;-70
2023/08/21 03:06:45;;;;;;;;;22.00;21.00;;;;;25.73;100.00;99214.72;6246112;27;96682;-70
2023/08/21 03:09:52;;;;;;;;;25.75;23.00;;;;;25.71;100.00;99216.97;6253646;27;97839;-69
2023/08/21 03:12:59;;;;;;;;;21.25;21.00;;;;;25.72;100.00;99215.03;6268131;27;96655;-69
2023/08/21 03:16:04;;;;;;;;;21.60;21.00;;;;;25.73;100.00;99214.72;6260816;27;97606;-69
2023/08/21 03:19:09;;;;;;;;;22.50;21.25;;;;;25.63;100.00;99206.69;6269254;27;96714;-69
2023/08/21 03:22:14;;;;;;;;;21.60;20.60;;;;;25.51;100.00;99194.53;6266597;27;96342;-69
2023/08/21 03:25:19;;;;;;;;;22.20;19.20;;;;;25.52;100.00;99207.19;6252529;27;97775;-69
2023/08/21 03:28:26;;;;;;;;;23.00;21.00;;;;;25.49;100.00;99197.59;6265844;27;96674;-69
2023/08/21 03:31:30;;;;;;;;;21.00;20.00;;;;;25.46;100.00;99201.78;6246773;27;98670;-69
2023/08/21 03:34:33;;;;;;;;;19.50;19.00;;;;;25.48;100.00;99206.19;6248539;27;98553;-69
2023/08/21 03:37:38;;;;;;;;;25.60;24.20;;;;;25.46;100.00;99204.56;6237026;27;96700;-69
2023/08/21 03:40:43;;;;;;;;;20.60;20.60;;;;;25.47;100.00;99210.91;6267634;27;96617;-69
2023/08/21 03:43:47;;;;;;;;;22.60;20.60;;;;;25.49;100.00;99199.56;6270519;27;97247;-69
2023/08/21 03:46:51;;;;;;;;;21.75;19.75;;;;;25.49;100.00;99210.59;6266659;27;96748;-69
2023/08/21 03:49:54;;;;;;;;;22.60;22.00;;;;;25.49;100.00;99207.84;6281334;27;96732;-69
2023/08/21 03:52:59;;;;;;;;;23.00;21.60;;;;;25.52;100.00;99205.25;6258056;27;97075;-69
2023/08/21 03:56:02;;;;;;;;;23.00;21.00;;;;;25.52;100.00;99202.50;6279936;27;96676;-69
2023/08/21 03:59:06;;;;;;;;;23.00;22.00;;;;;25.60;100.00;99210.09;6282010;27;96546;-69
2023/08/21 04:02:10;;;;;;;;;24.00;21.00;;;;;25.58;100.00;99200.47;6253608;27;98382;-69
2023/08/21 04:05:13;;;;;;;;;23.00;21.00;;;;;25.55;100.00;99201.91;6286795;27;96359;-69
2023/08/21 04:08:17;;;;;;;;;21.00;19.00;;;;;25.54;100.00;99205.78;6263702;27;96811;-70
2023/08/21 04:11:20;;;;;;;;;16.60;15.80;;;;;25.47;100.00;99197.09;6241861;27;97919;-69
2023/08/21 04:14:24;;;;;;;;;19.60;18.80;;;;;25.42;100.00;99197.22;6280053;27;96618;-69
2023/08/21 04:17:28;;;;;;;;;22.00;20.00;;;;;25.40;100.00;99205.81;6265295;27;96428;-69
2023/08/21 04:20:32;;;;;;;;;19.00;18.60;;;;;25.46;100.00;99199.03;6285104;27;96866;-69
2023/08/21 04:23:35;;;;;;;;;18.00;15.50;;;;;25.58;100.00;99197.69;6268395;27;96856;-69
2023/08/21 04:26:38;;;;;;;;;18.60;16.60;;;;;25.75;100.00;99204.19;6268693;27;99669;-69
2023/08/21 04:29:43;;;;;;;;;17.00;16.00;;;;;25.91;100.00;99210.13;6268749;27;97234;-69
2023/08/21 04:32:46;;;;;;;;;19.33;18.33;;;;;26.07;100.00;99216.91;6244812;27;96652;-70
2023/08/21 04:35:49;;;;;;;;;19.40;18.00;;;;;26.18;100.00;99223.00;6265592;27;96245;-70
2023/08/21 04:38:53;;;;;;;;;18.20;17.60;;;;;26.19;100.00;99219.91;6269395;27;96593;-70
2023/08/21 04:41:56;;;;;;;;;20.00;18.60;;;;;26.27;100.00;99216.41;6264379;27;96419;-69
2023/08/21 04:45:02;;;;;;;;;24.00;22.00;;;;;26.37;100.00;99220.84;6250534;27;98582;-70
2023/08/21 04:48:07;;;;;;;;;24.00;20.00;;;;;26.43;100.00;99227.06;6265743;27;96668;-70
2023/08/21 04:51:11;;;;;;;;;20.20;19.80;;;;;26.43;100.00;99222.38;6267651;27;96601;-69
2023/08/21 04:54:14;;;;;;;;;23.00;20.20;;;;;26.47;100.00;99228.06;6251090;27;96760;-70
2023/08/21 04:57:18;;;;;;;;;21.00;21.00;;;;;26.43;100.00;99213.25;6282833;27;96555;-70
2023/08/21 05:00:23;;;;;;;;;26.00;22.00;;;;;26.54;100.00;99214.56;6247537;27;98940;-70
2023/08/21 05:03:27;;;;;;;;;21.40;20.00;;;;;26.58;100.00;99221.94;6269129;27;96480;-70
2023/08/21 05:06:30;;;;;;;;;19.20;18.00;;;;;26.69;100.00;99226.03;6268401;27;96312;-69
2023/08/21 05:09:34;;;;;;;;;20.00;18.80;;;;;26.73;100.00;99226.25;6267730;27;96443;-70
2023/08/21 05:12:38;;;;;;;;;21.40;19.40;;;;;26.75;100.00;99226.72;6267327;27;96744;-70
2023/08/21 05:15:43;;;;;;;;;21.80;21.00;;;;;26.76;100.00;99224.78;6268488;27;96579;-70
2023/08/21 05:18:47;;;;;;;;;22.00;21.00;;;;;26.81;100.00;99235.69;6268484;27;96520;-69
2023/08/21 05:21:52;;;;;;;;;19.00;18.00;;;;;26.91;100.00;99243.72;6276744;27;96651;-69
2023/08/21 05:24:55;;;;;;;;;20.00;19.00;;;;;26.97;100.00;99248.00;6267931;27;96306;-70
2023/08/21 05:27:59;;;;;;;;;23.00;19.40;;;;;27.10;100.00;99245.09;6284541;27;96445;-69
2023/08/21 05:31:03;;;;;;;;;19.00;18.50;;;;;27.17;100.00;99232.75;6266712;27;96746;-70
2023/08/21 05:34:19;;;;;;;;;17.00;17.00;;;;;27.24;100.00;99244.13;6266049;27;96676;-69
2023/08/21 05:37:22;;;;;;;;;18.40;17.00;;;;;27.37;100.00;99229.34;6285473;27;96771;-70
2023/08/21 05:40:26;;;;;;;;;16.60;15.60;;;;;27.34;100.00;99230.81;6265800;27;97626;-70
2023/08/21 05:43:30;;;;;;;;;18.00;17.33;;;;;27.35;100.00;99229.69;6285007;27;96760;-69
2023/08/21 05:46:35;;;;;;;;;18.60;18.00;;;;;27.38;100.00;99229.03;6267120;27;96927;-69
2023/08/21 05:49:40;;;;;;;;;17.00;16.00;;;;;27.39;100.00;99227.06;6267828;27;97166;-70
2023/08/21 05:52:43;;;;;;;;;16.25;16.00;;;;;27.49;100.00;99237.88;6284427;27;96552;-70
2023/08/21 05:55:47;;;;;;;;;19.00;17.00;;;;;27.57;100.00;99240.63;6243163;27;97594;-69
2023/08/21 05:58:51;;;;;;;;;16.00;15.00;;;;;27.79;100.00;99242.44;6266676;27;96517;-69
2023/08/21 06:01:55;;;;;;;;;19.20;18.00;;;;;27.96;100.00;99244.38;6282942;27;97062;-69
2023/08/21 06:04:59;;;;;;;;;20.00;18.00;;;;;28.12;100.00;99242.75;6241220;27;98633;-69
2023/08/21 06:08:02;;;;;;;;;15.80;14.20;;;;;28.31;100.00;99247.94;6248379;27;97550;-69
2023/08/21 06:11:06;;;;;;;;;20.00;18.00;;;;;28.44;100.00;99247.72;6239081;27;96970;-70
2023/08/21 06:14:10;;;;;;;;;20.25;19.00;;;;;28.57;100.00;99253.41;6254064;27;98525;-69
2023/08/21 06:17:14;;;;;;;;;19.00;17.40;;;;;28.72;100.00;99244.59;6225427;27;97337;-69
2023/08/21 06:20:19;;;;;;;;;19.00;18.00;;;;;28.88;100.00;99245.66;6232608;27;96716;-70
2023/08/21 06:23:22;;;;;;;;;17.00;16.00;;;;;29.01;100.00;99244.59;6247837;27;96600;-69
2023/08/21 06:26:25;;;;;;;;;18.00;15.00;;;;;29.25;100.00;99249.53;6229300;27;97387;-69
2023/08/21 06:29:29;;;;;;;;;18.20;17.00;;;;;29.46;100.00;99249.59;6240227;27;98518;-70
2023/08/21 06:32:33;;;;;;;;;20.00;17.50;;;;;29.76;100.00;99253.13;6231247;27;98884;-69
2023/08/21 06:35:38;;;;;;;;;19.75;18.00;;;;;30.07;100.00;99262.69;6229381;27;96742;-69
2023/08/21 06:38:41;;;;;;;;;16.00;15.00;;;;;30.32;100.00;99257.19;6255546;27;96564;-69
2023/08/21 06:41:44;;;;;;;;;18.00;16.00;;;;;30.59;100.00;99262.19;6242490;27;98986;-69
2023/08/21 06:44:53;;;;;;;;;19.80;18.40;;;;;30.93;100.00;99261.75;6239113;27;96999;-69
2023/08/21 06:47:58;;;;;;;;;18.60;17.60;;;;;31.08;100.00;99259.47;6234702;27;98473;-69
2023/08/21 06:51:02;;;;;;;;;19.40;17.80;;;;;31.26;100.00;99274.78;6263040;27;96481;-69
2023/08/21 06:54:05;;;;;;;;;19.00;18.00;;;;;31.52;100.00;99277.19;6248091;27;96677;-69
2023/08/21 06:57:08;;;;;;;;;17.00;17.00;;;;;31.73;100.00;99261.94;6265924;27;96355;-70
2023/08/21 07:00:12;;;;;;;;;17.25;16.00;;;;;32.05;100.00;99273.25;6241444;27;98368;-69
2023/08/21 07:03:17;;;;;;;;;19.00;18.00;;;;;32.24;100.00;99279.00;6277020;27;96752;-69
2023/08/21 07:06:21;;;;;;;;;16.00;14.20;;;;;32.23;100.00;99277.38;6251560;27;99595;-69
2023/08/21 07:09:24;;;;;;;;;18.50;17.00;;;;;32.30;100.00;99276.75;6290368;27;96500;-69
2023/08/21 07:12:27;;;;;;;;;18.00;16.00;;;;;32.38;100.00;99287.75;6290062;27;96369;-70
2023/08/21 07:15:31;;;;;;;;;18.00;17.00;;;;;32.50;100.00;99284.88;6266354;27;98883;-69
2023/08/21 07:18:36;;;;;;;;;16.00;14.00;;;;;32.49;100.00;99291.66;6261452;27;97139;-69
2023/08/21 07:21:40;;;;;;;;;17.00;17.00;;;;;32.51;100.00;99288.50;6288387;27;98369;-69
2023/08/21 07:24:43;;;;;;;;;19.00;18.00;;;;;32.51;100.00;99288.50;6284967;27;96654;-69
2023/08/21 07:27:46;;;;;;;;;19.00;17.00;;;;;32.50;100.00;99284.88;6262996;27;96709;-69
2023/08/21 07:30:49;;;;;;;;;21.00;17.00;;;;;32.51;100.00;99286.50;6263212;27;96609;-69
2023/08/21 07:33:54;;;;;;;;;20.00;20.00;;;;;32.50;100.00;99284.09;6285920;27;96568;-69
2023/08/21 07:36:57;;;;;;;;;18.60;16.60;;;;;32.54;100.00;99282.22;6290202;27;96257;-67
2023/08/21 07:40:01;;;;;;;;;18.00;17.60;;;;;32.52;100.00;99285.34;6287749;27;97142;-67
2023/08/21 07:43:04;;;;;;;;;20.00;18.00;;;;;32.50;100.00;99298.06;6271126;27;98737;-69
2023/08/21 07:46:12;;;;;;;;;21.00;18.60;;;;;32.47;100.00;99302.34;6280526;27;98335;-69
2023/08/21 07:49:17;;;;;;;;;21.00;19.00;;;;;32.50;100.00;99300.84;6275258;27;97393;-69
2023/08/21 07:52:20;;;;;;;;;19.80;18.80;;;;;32.53;100.00;99303.72;6285859;27;96460;-70
2023/08/21 07:55:23;;;;;;;;;18.80;15.60;;;;;32.57;100.00;99287.88;6288653;27;96662;-69
2023/08/21 07:58:26;;;;;;;;;20.00;18.00;;;;;32.72;100.00;99297.47;6288673;27;96416;-70
2023/08/21 08:01:29;;;;;;;;;22.00;20.00;;;;;32.85;100.00;99298.19;6268430;27;96739;-70
2023/08/21 08:04:34;;;;;;;;;18.00;17.00;;;;;32.99;100.00;99298.56;6287557;27;96600;-70
2023/08/21 08:07:37;;;;;;;;;18.60;17.60;;;;;33.16;100.00;99309.41;6264142;27;98574;-69
2023/08/21 08:10:41;;;;;;;;;21.60;19.00;;;;;33.43;100.00;99319.66;6268929;27;96767;-70
2023/08/21 08:13:44;;;;;;;;;16.80;14.80;;;;;33.87;100.00;99316.69;6286476;27;96928;-70
2023/08/21 08:16:48;;;;;;;;;17.25;16.00;;;;;33.96;100.00;99328.50;6266938;27;97194;-70
2023/08/21 08:19:52;;;;;;;;;18.40;17.40;;;;;34.03;100.00;99316.63;6281372;27;96544;-69
2023/08/21 08:22:56;;;;;;;;;20.25;17.25;;;;;34.49;100.00;99328.81;6266353;27;96504;-68
2023/08/21 08:25:59;;;;;;;;;17.40;16.00;;;;;34.98;100.00;99340.97;6249621;27;98659;-68
2023/08/21 08:29:02;;;;;;;;;19.50;17.50;;;;;35.41;100.00;99344.53;6288447;27;97254;-68
2023/08/21 08:32:06;;;;;;;;;19.40;18.40;;;;;35.94;100.00;99354.59;6275535;27;96592;-68
2023/08/21 08:35:11;;;;;;;;;20.00;19.00;;;;;36.30;100.00;99336.25;6278599;27;96851;-68
2023/08/21 08:38:14;;;;;;;;;17.00;16.00;;;;;36.68;100.00;99343.53;6262308;27;96767;-68
2023/08/21 08:41:28;;;;;;;;;18.80;17.80;;;;;36.83;100.00;99341.69;6267634;27;97476;-68
2023/08/21 08:44:31;;;;;;;;;21.00;20.00;;;;;36.63;100.00;99349.50;6280625;27;96358;-67
2023/08/21 08:47:36;;;;;;;;;17.50;17.50;;;;;36.54;100.00;99348.16;6284454;27;96257;-68
2023/08/21 08:50:41;;;;;;;;;21.00;17.40;;;;;36.51;100.00;99357.38;6267537;27;98489;-68
2023/08/21 08:53:45;;;;;;;;;22.00;21.00;;;;;36.43;100.00;99356.44;6250948;27;97518;-68
2023/08/21 08:56:48;;;;;;;;;22.00;19.60;;;;;36.21;100.00;99354.59;6282809;27;96424;-69
2023/08/21 08:59:52;;;;;;;;;25.80;22.80;;;;;35.99;100.00;99347.84;6279578;27;96433;-68
2023/08/21 09:02:56;;;;;;;;;20.00;19.20;;;;;35.87;100.00;99359.31;6276887;27;97318;-68
2023/08/21 09:06:01;;;;;;;;;24.60;22.60;;;;;35.74;100.00;99353.09;6283542;27;97067;-68
2023/08/21 09:09:04;;;;;;;;;30.25;25.75;;;;;35.62;100.00;99350.47;6268147;27;97732;-68
2023/08/21 09:12:12;;;;;;;;;29.40;27.40;;;;;35.51;100.00;99350.31;6285262;27;97953;-69
2023/08/21 09:15:15;;;;;;;;;31.25;27.25;;;;;35.43;100.00;99350.59;6265242;27;96383;-68
2023/08/21 09:18:18;;;;;;;;;30.80;27.40;;;;;35.35;100.00;99346.84;6268561;27;96426;-68
2023/08/21 09:21:24;;;;;;;;;33.60;30.00;;;;;35.37;100.00;99350.09;6268811;27;97240;-69
2023/08/21 09:24:27;;;;;;;;;35.00;31.60;;;;;35.33;100.00;99342.81;6268022;27;96803;-68
2023/08/21 09:27:31;;;;;;;;;31.00;28.40;;;;;35.11;100.00;99344.41;6267246;27;96846;-68
2023/08/21 09:30:50;;;;;;;;;34.00;31.20;;;;;34.96;100.00;99336.91;6285092;27;97021;-68
2023/08/21 09:33:57;;;;;;;;;32.00;29.00;;;;;34.81;100.00;99335.03;6276430;27;96440;-67
2023/08/21 09:37:02;;;;;;;;;34.20;29.60;;;;;34.64;100.00;99339.13;6242576;27;98390;-68
2023/08/21 09:40:11;;;;;;;;;29.75;28.25;;;;;34.55;100.00;99330.91;6266352;27;96270;-68
2023/08/21 09:43:14;;;;;;;;;27.00;24.80;;;;;34.43;100.00;99327.50;6268671;27;96716;-69
2023/08/21 09:46:18;;;;;;;;;28.60;26.20;;;;;34.29;100.00;99323.22;6286743;27;96233;-69
2023/08/21 09:49:22;;;;;;;;;27.00;24.00;;;;;34.07;100.00;99321.13;6285598;27;96574;-69
2023/08/21 09:52:27;;;;;;;;;22.00;20.50;;;;;33.92;100.00;99322.00;6286404;27;96622;-68
2023/08/21 09:55:53;;;;;;;;;21.00;19.00;;;;;33.83;100.00;99315.78;6269567;27;96385;-68
2023/08/21 09:58:56;;;;;;;;;24.00;22.00;;;;;33.77;100.00;99314.50;6280245;27;96505;-68
2023/08/21 10:02:01;;;;;;;;;24.00;21.00;;;;;33.69;100.00;99312.69;6292983;27;96985;-68
2023/08/21 10:05:05;;;;;;;;;24.00;22.00;;;;;33.93;100.00;99318.03;6291033;27;96924;-67
2023/08/21 10:08:10;;;;;;;;;22.80;21.00;;;;;34.70;100.00;99318.84;6272632;27;96380;-68
2023/08/21 10:11:14;;;;;;;;;23.33;21.00;;;;;35.34;100.00;99319.16;6264705;27;97716;-67
2023/08/21 10:14:18;;;;;;;;;21.60;19.00;;;;;35.59;100.00;99326.78;6272442;27;96696;-68
2023/08/21 10:17:22;;;;;;;;;21.40;20.00;;;;;35.95;100.00;99325.34;6291174;27;96719;-68
2023/08/21 10:20:27;;;;;;;;;18.00;16.00;;;;;36.61;100.00;99320.16;6246795;27;96863;-68
2023/08/21 10:23:32;;;;;;;;;23.25;21.00;;;;;37.04;100.00;99318.59;6279208;27;96495;-68
2023/08/21 10:26:40;;;;;;;;;19.25;18.00;;;;;36.85;100.00;99285.88;6272307;27;96367;-69
2023/08/21 10:29:57;;;;;;;;;19.80;18.80;;;;;37.46;100.00;99310.53;6288417;27;97609;-68
2023/08/21 10:33:01;;;;;;;;;21.60;19.00;;;;;38.07;100.00;99303.31;6290526;27;96502;-68
2023/08/21 10:36:05;;;;;;;;;22.40;20.80;;;;;38.62;100.00;99305.91;6289453;27;96992;-67
2023/08/21 10:39:17;;;;;;;;;21.60;20.00;;;;;39.10;100.00;99298.75;6280250;27;96999;-68
2023/08/21 10:42:38;;;;;;;;;20.00;18.40;;;;;39.24;100.00;99304.41;6271704;27;96730;-68
2023/08/21 10:45:55;;;;;;;;;19.40;18.00;;;;;38.98;100.00;99299.97;6288664;27;96414;-68
2023/08/21 10:48:58;;;;;;;;;21.00;19.00;;;;;38.54;100.00;99297.47;6271847;27;97126;-68
2023/08/21 10:52:03;;;;;;;;;18.00;16.00;;;;;37.71;100.00;99291.03;6270768;27;98496;-68
2023/08/21 10:55:09;;;;;;;;;18.00;17.00;;;;;37.26;100.00;99293.09;6270917;27;96845;-68
2023/08/21 10:58:14;;;;;;;;;19.20;16.60;;;;;37.00;100.00;99290.44;6290331;27;96904;-68
2023/08/21 11:01:17;;;;;;;;;18.50;16.50;;;;;37.03;100.00;99284.06;6270738;27;96320;-68
2023/08/21 11:04:21;;;;;;;;;19.80;19.00;;;;;37.41;100.00;99281.94;6282526;27;96600;-68
2023/08/21 11:07:25;;;;;;;;;18.75;17.00;;;;;37.63;100.00;99278.91;6288050;27;96319;-68
2023/08/21 11:10:31;;;;;;;;;19.00;17.00;;;;;38.16;100.00;99275.59;6268921;27;96867;-67
2023/08/21 11:13:34;;;;;;;;;17.60;16.60;;;;;38.06;100.00;99279.97;6269604;27;96931;-68
2023/08/21 11:16:37;;;;;;;;;19.80;18.80;;;;;37.91;100.00;99286.72;6289129;27;96505;-68
2023/08/21 11:19:42;;;;;;;;;19.60;18.60;;;;;37.88;100.00;99281.84;6280773;27;98568;-68
2023/08/21 11:22:45;;;;;;;;;20.00;19.00;;;;;37.96;100.00;99268.63;6299572;27;96968;-66
2023/08/21 11:25:49;;;;;;;;;23.00;21.00;;;;;37.89;100.00;99275.03;6277192;27;99256;-67
2023/08/21 11:28:53;;;;;;;;;23.50;21.25;;;;;37.97;100.00;99278.69;6293120;27;97603;-66
2023/08/21 11:31:56;;;;;;;;;22.50;20.50;;;;;38.06;100.00;99276.34;6292793;27;97104;-67
2023/08/21 11:34:59;;;;;;;;;19.00;18.00;;;;;38.54;100.00;99271.28;6279878;27;96369;-66
2023/08/21 11:38:03;;;;;;;;;21.00;19.80;;;;;38.96;100.00;99276.19;6301041;27;96516;-67
2023/08/21 11:41:11;;;;;;;;;18.80;17.20;;;;;39.08;100.00;99270.16;6280798;27;98667;-67
2023/08/21 11:44:17;;;;;;;;;22.80;19.20;;;;;39.21;100.00;99268.53;6283411;27;96835;-68
2023/08/21 11:47:22;;;;;;;;;27.00;23.20;;;;;39.00;100.00;99268.53;6304204;27;96422;-67
2023/08/21 11:50:27;;;;;;;;;26.00;24.00;;;;;38.87;100.00;99256.03;6278035;27;97153;-67
2023/08/21 11:53:35;;;;;;;;;23.40;21.40;;;;;38.92;100.00;99259.28;6268450;27;98398;-66
2023/08/21 11:56:42;;;;;;;;;27.00;23.40;;;;;38.84;100.00;99246.38;6301532;27;96367;-67
2023/08/21 11:59:51;;;;;;;;;26.00;24.00;;;;;38.95;100.00;99235.13;6274609;27;97523;-67
2023/08/21 12:02:56;;;;;;;;;23.50;20.50;;;;;39.51;100.00;99256.81;6254113;27;98633;-66
2023/08/21 12:06:00;;;;;;;;;24.50;23.50;;;;;39.65;100.00;99267.25;6303135;27;96353;-66
2023/08/21 12:09:04;;;;;;;;;28.00;26.00;;;;;39.27;100.00;99263.28;6285149;27;96845;-67
2023/08/21 12:12:09;;;;;;;;;24.60;22.00;;;;;39.21;100.00;99243.16;6256513;27;96883;-67
2023/08/21 12:15:12;;;;;;;;;24.50;22.00;;;;;38.91;100.00;99251.22;6291670;27;96946;-67
2023/08/21 12:18:15;;;;;;;;;27.50;24.00;;;;;38.68;100.00;99243.13;6274085;27;98711;-67
2023/08/21 12:21:18;;;;;;;;;24.60;22.00;;;;;38.49;100.00;99244.31;6291913;27;96341;-68
2023/08/21 12:24:21;;;;;;;;;23.40;20.60;;;;;38.24;100.00;99234.97;6292151;27;96956;-68
2023/08/21 12:27:26;;;;;;;;;21.25;21.00;;;;;38.03;100.00;99235.69;6293529;27;96392;-67
2023/08/21 12:30:29;;;;;;;;;22.00;19.40;;;;;37.98;100.00;99232.44;6272016;27;96413;-68
2023/08/21 12:33:32;;;;;;;;;26.00;23.00;;;;;37.84;100.00;99238.00;6258392;27;99103;-68
2023/08/21 12:36:37;;;;;;;;;26.50;24.25;;;;;37.41;100.00;99234.13;6277456;27;96431;-67
2023/08/21 12:39:40;;;;;;;;;25.60;23.00;;;;;37.09;100.00;99229.13;6294648;27;96398;-67
2023/08/21 12:42:45;;;;;;;;;26.00;23.00;;;;;36.71;100.00;99224.75;6294921;27;97594;-68
2023/08/21 12:45:48;;;;;;;;;22.40;20.40;;;;;36.46;100.00;99229.28;6276081;27;96400;-67
2023/08/21 12:48:51;;;;;;;;;24.00;21.60;;;;;36.19;100.00;99225.00;6273214;27;96546;-68
2023/08/21 12:51:55;;;;;;;;;23.00;23.00;;;;;36.00;100.00;99225.97;6273538;27;96334;-67
2023/08/21 12:54:59;;;;;;;;;23.00;22.00;;;;;35.68;100.00;99216.34;6272104;27;96913;-67
2023/08/21 12:58:04;;;;;;;;;24.00;22.00;;;;;35.45;100.00;99216.41;6272524;27;96894;-67
2023/08/21 13:01:07;;;;;;;;;25.00;24.00;;;;;35.34;100.00;99221.03;6252576;27;97114;-68
2023/08/21 13:04:10;;;;;;;;;24.60;20.60;;;;;35.25;100.00;99217.72;6270187;27;96401;-67
2023/08/21 13:07:14;;;;;;;;;22.75;21.75;;;;;35.16;100.00;99218.78;6279802;27;96302;-67
2023/08/21 13:10:17;;;;;;;;;25.00;24.00;;;;;34.92;100.00;99221.19;6270449;27;96727;-68
2023/08/21 13:13:22;;;;;;;;;25.60;24.00;;;;;34.88;100.00;99223.94;6286718;27;96497;-68
2023/08/21 13:16:25;;;;;;;;;23.00;22.33;;;;;34.87;100.00;99222.31;6266227;27;98441;-67
2023/08/21 13:19:28;;;;;;;;;30.00;25.00;;;;;34.89;100.00;99213.53;6281360;27;96635;-68
2023/08/21 13:22:45;;;;;;;;;25.40;23.40;;;;;34.97;100.00;99212.47;6282701;27;96679;-67
2023/08/21 13:25:48;;;;;;;;;26.00;23.00;;;;;35.10;100.00;99202.66;6285542;27;96421;-67
2023/08/21 13:28:53;;;;;;;;;28.00;23.75;;;;;35.42;100.00;99208.75;6280575;27;97251;-67
2023/08/21 13:31:56;;;;;;;;;26.00;23.40;;;;;35.53;100.00;99207.69;6258555;27;96652;-67
2023/08/21 13:34:59;;;;;;;;;26.00;23.00;;;;;35.62;100.00;99204.63;6288730;27;96390;-67
2023/08/21 13:38:03;;;;;;;;;27.75;25.00;;;;;35.77;100.00;99191.63;6284037;27;96465;-67
2023/08/21 13:41:07;;;;;;;;;27.60;24.00;;;;;36.18;100.00;99195.31;6269499;27;98737;-68
2023/08/21 13:44:12;;;;;;;;;27.20;25.40;;;;;36.36;100.00;99193.53;6267601;27;97572;-67
2023/08/21 13:47:15;;;;;;;;;26.60;24.60;;;;;36.54;100.00;99190.88;6263143;27;97618;-68
2023/08/21 13:50:19;;;;;;;;;27.00;25.60;;;;;36.66;100.00;99191.41;6250302;27;96722;-67
2023/08/21 13:53:22;;;;;;;;;29.25;24.75;;;;;36.79;100.00;99187.09;6272361;27;96630;-67
2023/08/21 13:56:25;;;;;;;;;26.60;26.00;;;;;37.00;100.00;99186.44;6290770;27;96335;-67
2023/08/21 13:59:29;;;;;;;;;26.40;25.60;;;;;37.10;100.00;99177.31;6250806;27;99186;-68